Terminal Aerodrome Forecast
Issued by NWS

Home | Current Version | Previous Version | Graphics & Text | Print | Product List | Glossary On
Versions: 1 2 3 4 5 6 7 8 9 10 11 12 13 14 15 16 17
172
FTUS43 KMPX 300534
TAFAXN
TAF
KAXN 300534Z 3006/0106 07008KT P6SM OVC150
     FM301500 06014G22KT P6SM OVC100
     FM302100 06015G25KT P6SM OVC050
     FM010200 05014G22KT 4SM -RASN OVC025=

USA.gov is the U.S. government's official web portal to all federal, state and local government web resources and services.